Time;durP1;ratioP1;P1;durP2;ratioP2;P2;SDS_P1;SDS_P2;PMS_P1;PMS_P2;Temp;Humidity;BMP_temperature;BMP_pressure;BME280_temperature;BME280_humidity;BME280_pressure;Samples;Min_cycle;Max_cycle;Signal;HPM_P1;HPM_P2
2023/06/01 00:01:44;;;;;;;;;;;;;;;14.77;65.45;102267.63;4943553;28;19926;-61
2023/06/01 00:04:09;;;;;;;;;;;;;;;14.72;65.18;102270.78;4952982;28;19922;-61
2023/06/01 00:06:35;;;;;;;;;;;;;;;14.69;65.09;102271.09;4948439;28;20631;-61
2023/06/01 00:09:02;;;;;;;;;;;;;;;14.66;65.05;102267.91;4947772;28;20029;-61
2023/06/01 00:11:27;;;;;;;;;;;;;;;14.61;65.43;102267.56;4949707;28;19961;-61
2023/06/01 00:13:52;;;;;;;;;;;;;;;14.55;65.48;102267.22;4942282;28;20444;-62
2023/06/01 00:16:18;;;;;;;;;;;;;;;14.51;66.10;102268.56;4945959;28;19982;-60
2023/06/01 00:18:43;;;;;;;;;;;;;;;14.48;65.69;102263.53;4950155;28;20296;-61
2023/06/01 00:21:09;;;;;;;;;;;;;;;14.44;65.81;102267.50;4945200;28;19965;-61
2023/06/01 00:23:34;;;;;;;;;;;;;;;14.41;65.92;102266.94;4948002;28;19918;-61
2023/06/01 00:26:00;;;;;;;;;;;;;;;14.37;66.18;102266.44;4945315;28;19922;-61
2023/06/01 00:28:26;;;;;;;;;;;;;;;14.33;66.11;102262.41;4945413;28;19922;-59
2023/06/01 00:30:52;;;;;;;;;;;;;;;14.30;66.38;102265.41;4947315;28;20300;-61
2023/06/01 00:33:17;;;;;;;;;;;;;;;14.22;66.73;102268.91;4946708;28;19915;-61
2023/06/01 00:35:43;;;;;;;;;;;;;;;14.18;66.71;102269.38;4942007;28;20441;-61
2023/06/01 00:38:08;;;;;;;;;;;;;;;14.13;66.77;102269.81;4943773;28;19936;-61
2023/06/01 00:40:33;;;;;;;;;;;;;;;14.09;66.73;102265.81;4943909;28;19925;-60
2023/06/01 00:42:59;;;;;;;;;;;;;;;14.05;66.87;102269.78;4951970;28;19945;-61
2023/06/01 00:45:24;;;;;;;;;;;;;;;14.00;67.20;102263.25;4948549;28;20291;-61
2023/06/01 00:47:50;;;;;;;;;;;;;;;13.94;67.53;102270.06;4943678;28;20319;-61
2023/06/01 00:50:15;;;;;;;;;;;;;;;13.86;67.58;102265.50;4946338;28;19937;-61
2023/06/01 00:52:41;;;;;;;;;;;;;;;13.76;67.64;102267.44;4941557;28;19990;-60
2023/06/01 00:55:07;;;;;;;;;;;;;;;13.77;67.65;102268.28;4950335;28;19921;-61
2023/06/01 00:57:33;;;;;;;;;;;;;;;13.75;67.30;102268.44;4949779;28;20008;-61
2023/06/01 00:59:58;;;;;;;;;;;;;;;13.73;67.40;102273.09;4948667;28;20422;-61
2023/06/01 01:02:23;;;;;;;;;;;;;;;13.67;67.95;102271.06;4949170;28;19949;-61
2023/06/01 01:04:52;;;;;;;;;;;;;;;13.61;68.17;102275.19;4950242;28;19946;-61
2023/06/01 01:07:21;;;;;;;;;;;;;;;13.56;68.33;102269.44;4951497;28;19914;-61
2023/06/01 01:09:53;;;;;;;;;;;;;;;13.53;68.02;102272.44;4950133;28;20466;-61
2023/06/01 01:12:26;;;;;;;;;;;;;;;13.50;67.90;102279.91;4948243;28;19922;-61
2023/06/01 01:15:09;;;;;;;;;;;;;;;13.45;68.06;102280.38;4946065;28;19926;-61
2023/06/01 01:17:39;;;;;;;;;;;;;;;13.43;68.10;102284.19;4945752;28;19918;-61
2023/06/01 01:20:15;;;;;;;;;;;;;;;13.40;68.17;102279.16;4947828;28;19922;-61
2023/06/01 01:22:59;;;;;;;;;;;;;;;13.37;68.30;102288.31;4947479;28;19918;-61
2023/06/01 01:25:45;;;;;;;;;;;;;;;13.32;68.58;102279.94;4947871;28;19961;-61
2023/06/01 01:28:27;;;;;;;;;;;;;;;13.29;68.37;102285.56;4945661;28;19926;-61
2023/06/01 01:30:53;;;;;;;;;;;;;;;13.26;68.78;102280.53;4946244;28;19981;-61
2023/06/01 01:33:19;;;;;;;;;;;;;;;13.22;68.44;102284.50;4947870;28;19922;-61
2023/06/01 01:35:45;;;;;;;;;;;;;;;13.18;68.98;102283.13;4946986;28;19926;-61
2023/06/01 01:38:10;;;;;;;;;;;;;;;13.13;68.87;102291.56;4945570;28;19922;-61
2023/06/01 01:40:36;;;;;;;;;;;;;;;13.09;68.88;102278.69;4948231;28;20411;-61
2023/06/01 01:43:01;;;;;;;;;;;;;;;13.05;68.83;102280.81;4944476;28;21109;-61
2023/06/01 01:45:26;;;;;;;;;;;;;;;13.02;68.75;102289.13;4950057;28;19922;-61
2023/06/01 01:48:11;;;;;;;;;;;;;;;12.99;69.17;102286.75;4948493;28;19918;-62
2023/06/01 01:50:38;;;;;;;;;;;;;;;12.95;69.00;102283.53;4944619;28;19921;-61
2023/06/01 01:53:06;;;;;;;;;;;;;;;12.94;68.97;102291.69;4944575;28;19933;-61
2023/06/01 01:55:33;;;;;;;;;;;;;;;12.91;69.34;102281.31;4943792;28;19919;-61
2023/06/01 01:57:59;;;;;;;;;;;;;;;12.87;69.52;102286.13;4946097;28;20399;-61
2023/06/01 02:00:24;;;;;;;;;;;;;;;12.83;69.72;102284.75;4943579;28;19919;-61
2023/06/01 02:02:50;;;;;;;;;;;;;;;12.80;69.71;102294.88;4945408;28;19922;-61
2023/06/01 02:05:15;;;;;;;;;;;;;;;12.77;69.63;102296.03;4942918;28;19923;-61
2023/06/01 02:07:40;;;;;;;;;;;;;;;12.76;69.97;102293.50;4946312;28;20296;-62
2023/06/01 02:10:06;;;;;;;;;;;;;;;12.75;69.87;102297.16;4944244;28;19965;-61
2023/06/01 02:12:31;;;;;;;;;;;;;;;12.73;70.13;102283.16;4950756;28;19954;-61
2023/06/01 02:14:56;;;;;;;;;;;;;;;12.71;69.92;102276.09;4941604;28;20014;-61
2023/06/01 02:17:21;;;;;;;;;;;;;;;12.71;69.86;102284.09;4947489;28;19918;-60
2023/06/01 02:19:47;;;;;;;;;;;;;;;12.72;70.24;102279.59;4946337;28;19970;-62
2023/06/01 02:22:12;;;;;;;;;;;;;;;12.71;70.14;102277.94;4949848;29;19926;-62
2023/06/01 02:24:37;;;;;;;;;;;;;;;12.72;70.34;102279.59;4946524;28;19919;-59
2023/06/01 02:27:02;;;;;;;;;;;;;;;12.73;70.37;102278.66;4949786;29;19977;-60
2023/06/01 02:29:28;;;;;;;;;;;;;;;12.72;70.15;102284.94;4946837;28;19919;-61
2023/06/01 02:31:54;;;;;;;;;;;;;;;12.72;70.25;102274.28;4950208;28;20030;-60
2023/06/01 02:34:19;;;;;;;;;;;;;;;12.73;70.58;102278.66;4948622;28;20520;-61
2023/06/01 02:36:45;;;;;;;;;;;;;;;12.73;70.34;102269.81;4950747;28;19919;-61
2023/06/01 02:39:10;;;;;;;;;;;;;;;12.72;70.60;102274.28;4945666;28;20425;-60
2023/06/01 02:41:35;;;;;;;;;;;;;;;12.70;70.21;102276.25;4946249;28;19922;-61
2023/06/01 02:44:00;;;;;;;;;;;;;;;12.70;70.20;102268.25;4942543;28;19918;-61
2023/06/01 02:46:26;;;;;;;;;;;;;;;12.70;70.57;102262.94;4946440;28;19921;-61
2023/06/01 02:48:52;;;;;;;;;;;;;;;12.69;70.60;102278.09;4942133;28;20356;-61
2023/06/01 02:51:18;;;;;;;;;;;;;;;12.66;70.50;102273.06;4950492;28;20064;-61
2023/06/01 02:53:44;;;;;;;;;;;;;;;12.65;70.36;102274.03;4946705;28;19919;-61
2023/06/01 02:56:09;;;;;;;;;;;;;;;12.64;70.58;102275.03;4948505;28;20431;-61
2023/06/01 02:58:35;;;;;;;;;;;;;;;12.63;70.70;102284.00;4946159;28;19929;-60
2023/06/01 03:01:00;;;;;;;;;;;;;;;12.61;70.68;102280.66;4949706;28;19922;-61
2023/06/01 03:03:26;;;;;;;;;;;;;;;12.61;70.83;102285.16;4945816;28;20009;-61
2023/06/01 03:05:51;;;;;;;;;;;;;;;12.60;71.07;102286.97;4946756;28;19924;-60
2023/06/01 03:08:17;;;;;;;;;;;;;;;12.56;70.99;102280.28;4944484;28;19919;-61
2023/06/01 03:10:42;;;;;;;;;;;;;;;12.51;71.41;102287.88;4948057;28;19915;-60
2023/06/01 03:13:07;;;;;;;;;;;;;;;12.46;71.41;102282.16;4948626;28;19922;-61
2023/06/01 03:15:33;;;;;;;;;;;;;;;12.46;71.00;102284.81;4945495;28;20419;-61
2023/06/01 03:17:58;;;;;;;;;;;;;;;12.45;71.04;102283.16;4941841;28;19930;-61
2023/06/01 03:20:23;;;;;;;;;;;;;;;12.45;71.01;102283.16;4945990;28;20384;-61
2023/06/01 03:22:48;;;;;;;;;;;;;;;12.42;70.80;102283.41;4941721;28;19914;-61
2023/06/01 03:25:14;;;;;;;;;;;;;;;12.43;71.41;102282.44;4945446;28;19918;-61
2023/06/01 03:27:39;;;;;;;;;;;;;;;12.43;71.14;102281.59;4943188;28;19918;-61
2023/06/01 03:30:09;;;;;;;;;;;;;;;12.41;71.59;102287.06;4942796;28;19921;-61
2023/06/01 03:32:35;;;;;;;;;;;;;;;12.37;71.57;102286.53;4943118;28;19966;-61
2023/06/01 03:35:00;;;;;;;;;;;;;;;12.34;71.49;102281.50;4944822;28;19962;-61
2023/06/01 03:37:25;;;;;;;;;;;;;;;12.32;71.73;102279.97;4947787;28;19970;-61
2023/06/01 03:39:51;;;;;;;;;;;;;;;12.29;71.93;102282.91;4945494;28;19918;-61
2023/06/01 03:42:16;;;;;;;;;;;;;;;12.27;71.88;102275.09;4945393;28;20277;-61
2023/06/01 03:44:41;;;;;;;;;;;;;;;12.26;71.67;102281.41;4942803;28;20392;-61
2023/06/01 03:47:07;;;;;;;;;;;;;;;12.25;71.71;102276.22;4940964;28;19954;-61
2023/06/01 03:49:32;;;;;;;;;;;;;;;12.21;71.76;102283.66;4949783;28;19958;-61
2023/06/01 03:51:57;;;;;;;;;;;;;;;12.18;71.53;102291.94;4944132;28;19983;-61
2023/06/01 03:54:22;;;;;;;;;;;;;;;12.14;71.39;102290.53;4948311;28;20336;-61
2023/06/01 03:56:47;;;;;;;;;;;;;;;12.13;71.89;102288.84;4941383;28;19927;-60
2023/06/01 03:59:13;;;;;;;;;;;;;;;12.13;72.10;102288.00;4949251;28;19968;-61
2023/06/01 04:01:39;;;;;;;;;;;;;;;12.10;72.33;102289.97;4945828;28;20044;-61
2023/06/01 04:04:05;;;;;;;;;;;;;;;12.10;72.11;102289.97;4943545;29;20365;-61
2023/06/01 04:06:35;;;;;;;;;;;;;;;12.12;71.89;102292.50;4948490;28;21025;-61
2023/06/01 04:09:06;;;;;;;;;;;;;;;12.14;71.73;102289.69;4948894;28;19982;-61
2023/06/01 04:11:31;;;;;;;;;;;;;;;12.17;71.55;102286.78;4942616;28;19946;-61
2023/06/01 04:13:56;;;;;;;;;;;;;;;12.18;72.17;102285.78;4947695;29;20296;-63
2023/06/01 04:16:21;;;;;;;;;;;;;;;12.17;71.89;102278.78;4945972;28;19962;-61
2023/06/01 04:18:47;;;;;;;;;;;;;;;12.10;72.28;102283.81;4946759;28;20399;-61
2023/06/01 04:21:12;;;;;;;;;;;;;;;12.12;72.06;102286.34;4949774;28;19915;-60
2023/06/01 04:23:37;;;;;;;;;;;;;;;12.14;71.95;102284.38;4947875;28;20402;-61
2023/06/01 04:26:04;;;;;;;;;;;;;;;12.16;71.77;102287.75;4951424;28;19926;-60
2023/06/01 04:28:30;;;;;;;;;;;;;;;12.19;71.68;102293.63;4946698;28;20371;-61
2023/06/01 04:30:56;;;;;;;;;;;;;;;12.23;71.57;102291.50;4947278;28;19923;-61
2023/06/01 04:33:24;;;;;;;;;;;;;;;12.26;71.80;102288.53;4949169;28;20442;-61
2023/06/01 04:35:52;;;;;;;;;;;;;;;12.25;71.71;102293.03;4944262;28;20371;-61
2023/06/01 04:38:18;;;;;;;;;;;;;;;12.26;71.87;102296.53;4949024;28;19914;-61
2023/06/01 04:40:44;;;;;;;;;;;;;;;12.25;72.06;102301.03;4944765;28;19922;-61
2023/06/01 04:43:11;;;;;;;;;;;;;;;12.24;72.34;102296.69;4947015;28;20273;-61
2023/06/01 04:45:38;;;;;;;;;;;;;;;12.26;71.95;102307.19;4947995;28;19978;-61
2023/06/01 04:48:05;;;;;;;;;;;;;;;12.27;72.18;102293.72;4950100;28;20563;-61
2023/06/01 04:50:30;;;;;;;;;;;;;;;12.29;71.88;102306.91;4946057;28;19919;-61
2023/06/01 04:52:55;;;;;;;;;;;;;;;12.30;72.23;102309.41;4933491;28;19933;-61
2023/06/01 04:55:21;;;;;;;;;;;;;;;12.34;72.38;102305.47;4949877;28;19953;-60
2023/06/01 04:57:46;;;;;;;;;;;;;;;12.33;72.01;102297.63;4948282;28;19922;-61
2023/06/01 05:00:13;;;;;;;;;;;;;;;12.33;71.90;102310.94;4948524;28;20291;-61
2023/06/01 05:02:43;;;;;;;;;;;;;;;12.33;72.24;102302.94;4950701;28;20009;-61
2023/06/01 05:05:08;;;;;;;;;;;;;;;12.34;72.02;102299.31;4948132;28;20132;-61
2023/06/01 05:07:36;;;;;;;;;;;;;;;12.36;71.84;102298.16;4945942;28;20462;-61
2023/06/01 05:10:05;;;;;;;;;;;;;;;12.37;72.16;102297.19;4948595;28;20008;-61
2023/06/01 05:12:30;;;;;;;;;;;;;;;12.40;71.92;102299.53;4951256;28;20395;-61
2023/06/01 05:14:55;;;;;;;;;;;;;;;12.44;72.05;102307.28;4945700;28;19923;-61
2023/06/01 05:17:21;;;;;;;;;;;;;;;12.48;72.11;102290.84;4944293;28;20004;-60
2023/06/01 05:19:46;;;;;;;;;;;;;;;12.52;71.73;102292.22;4946106;28;20324;-61
2023/06/01 05:22:11;;;;;;;;;;;;;;;12.56;71.56;102293.59;4942664;28;19954;-61
2023/06/01 05:24:37;;;;;;;;;;;;;;;12.59;71.70;102287.13;4944689;28;20424;-61
2023/06/01 05:27:02;;;;;;;;;;;;;;;12.60;71.19;102294.97;4945977;28;20017;-61
2023/06/01 05:29:27;;;;;;;;;;;;;;;12.61;70.91;102293.16;4929511;28;20010;-59
2023/06/01 05:31:52;;;;;;;;;;;;;;;12.62;71.11;102294.81;4942068;28;19919;-60
2023/06/01 05:34:17;;;;;;;;;;;;;;;12.62;70.98;102300.16;4948479;29;19948;-61
2023/06/01 05:36:42;;;;;;;;;;;;;;;12.60;70.92;102302.97;4947520;28;19922;-59
2023/06/01 05:39:08;;;;;;;;;;;;;;;12.59;70.99;102301.28;4945448;28;19969;-61
2023/06/01 05:41:33;;;;;;;;;;;;;;;12.58;71.16;102299.63;4950401;29;19914;-61
2023/06/01 05:43:58;;;;;;;;;;;;;;;12.59;71.09;102305.78;4944323;28;19926;-61
2023/06/01 05:46:24;;;;;;;;;;;;;;;12.58;70.83;102301.44;4949913;28;20009;-60
2023/06/01 05:48:50;;;;;;;;;;;;;;;12.58;70.71;102306.78;4944304;28;19918;-61
2023/06/01 05:51:15;;;;;;;;;;;;;;;12.57;70.80;102302.44;4949706;29;19922;-61
2023/06/01 05:53:40;;;;;;;;;;;;;;;12.55;70.44;102315.91;4948390;28;19969;-61
2023/06/01 05:56:06;;;;;;;;;;;;;;;12.53;70.52;102299.22;4944941;28;20371;-60
2023/06/01 05:58:31;;;;;;;;;;;;;;;12.57;71.08;102295.28;4941245;28;19918;-61
2023/06/01 06:00:56;;;;;;;;;;;;;;;12.64;71.02;102308.84;4945081;28;21172;-61
2023/06/01 06:03:22;;;;;;;;;;;;;;;12.73;71.24;102304.47;4944128;28;19998;-60
2023/06/01 06:05:47;;;;;;;;;;;;;;;12.77;71.45;102301.34;4938968;29;19927;-61
2023/06/01 06:08:12;;;;;;;;;;;;;;;12.82;70.92;102299.06;4944335;28;21532;-61
2023/06/01 06:10:38;;;;;;;;;;;;;;;12.88;71.30;102300.28;4945612;29;20025;-60
2023/06/01 06:13:03;;;;;;;;;;;;;;;12.95;71.00;102306.69;4939452;28;19934;-61
2023/06/01 06:15:29;;;;;;;;;;;;;;;12.98;70.90;102309.91;4946456;28;19969;-61
2023/06/01 06:17:55;;;;;;;;;;;;;;;12.97;70.46;102312.72;4941942;28;20001;-60
2023/06/01 06:20:21;;;;;;;;;;;;;;;12.95;69.83;102310.19;4947107;28;20021;-60
2023/06/01 06:22:49;;;;;;;;;;;;;;;12.93;69.99;102308.69;4947807;28;20077;-61
2023/06/01 06:25:14;;;;;;;;;;;;;;;12.93;69.97;102306.00;4941519;28;19941;-60
2023/06/01 06:27:39;;;;;;;;;;;;;;;12.96;69.83;102308.38;4945051;28;20403;-61
2023/06/01 06:30:06;;;;;;;;;;;;;;;13.03;70.06;102304.97;4950402;28;19919;-61
2023/06/01 06:32:31;;;;;;;;;;;;;;;13.10;70.16;102302.53;4947884;28;19946;-61
2023/06/01 06:34:56;;;;;;;;;;;;;;;13.14;69.98;102297.75;4945181;28;20384;-61
2023/06/01 06:37:22;;;;;;;;;;;;;;;13.14;69.41;102298.56;4948480;28;19915;-61
2023/06/01 06:39:47;;;;;;;;;;;;;;;13.15;69.15;102307.41;4945395;28;20296;-61
2023/06/01 06:42:12;;;;;;;;;;;;;;;13.18;69.47;102304.47;4947908;28;19923;-61
2023/06/01 06:44:37;;;;;;;;;;;;;;;13.23;69.13;102312.84;4939316;28;20490;-60
2023/06/01 06:47:02;;;;;;;;;;;;;;;13.29;69.41;102312.25;4941821;28;19922;-60
2023/06/01 06:49:28;;;;;;;;;;;;;;;13.36;69.04;102312.50;4942931;29;19915;-61
2023/06/01 06:51:53;;;;;;;;;;;;;;;13.39;69.31;102307.69;4944738;28;19945;-61
2023/06/01 06:54:18;;;;;;;;;;;;;;;13.48;69.14;102312.09;4945509;29;19919;-60
2023/06/01 06:56:44;;;;;;;;;;;;;;;13.58;69.24;102306.66;4934259;28;20057;-61
2023/06/01 06:59:09;;;;;;;;;;;;;;;13.70;69.20;102310.78;4943843;28;19918;-61
2023/06/01 07:01:35;;;;;;;;;;;;;;;13.87;69.06;102311.72;4941800;28;19926;-61
2023/06/01 07:04:01;;;;;;;;;;;;;;;13.99;69.40;102309.66;4947115;28;19919;-61
2023/06/01 07:06:26;;;;;;;;;;;;;;;14.04;68.78;102310.84;4942286;28;19919;-61
2023/06/01 07:08:51;;;;;;;;;;;;;;;14.10;69.22;102317.41;4944260;28;19941;-60
2023/06/01 07:11:16;;;;;;;;;;;;;;;14.17;68.52;102315.78;4942550;28;19930;-61
2023/06/01 07:13:42;;;;;;;;;;;;;;;14.18;68.42;102312.97;4944970;28;19923;-61
2023/06/01 07:16:07;;;;;;;;;;;;;;;14.26;68.27;102315.69;4942976;28;19919;-61
2023/06/01 07:18:32;;;;;;;;;;;;;;;14.37;68.42;102305.69;4949003;28;19984;-61
2023/06/01 07:20:58;;;;;;;;;;;;;;;14.46;68.12;102302.94;4947120;28;19918;-61
2023/06/01 07:23:23;;;;;;;;;;;;;;;14.47;68.11;102304.63;4943940;28;20021;-61
2023/06/01 07:25:48;;;;;;;;;;;;;;;14.50;67.66;102301.63;4941740;28;19962;-60
2023/06/01 07:28:15;;;;;;;;;;;;;;;14.57;67.68;102309.84;4942167;28;19981;-61
2023/06/01 07:30:40;;;;;;;;;;;;;;;14.61;67.29;102307.69;4949262;28;19921;-61
2023/06/01 07:33:05;;;;;;;;;;;;;;;14.62;66.71;102312.88;4941985;28;19930;-60
2023/06/01 07:35:32;;;;;;;;;;;;;;;14.61;66.51;102310.34;4938172;28;19966;-61
2023/06/01 07:37:57;;;;;;;;;;;;;;;14.63;66.14;102303.00;4947471;28;19918;-61
2023/06/01 07:40:23;;;;;;;;;;;;;;;14.65;66.08;102315.22;4938846;28;19981;-61
2023/06/01 07:42:48;;;;;;;;;;;;;;;14.66;65.73;102310.69;4941257;28;20455;-61
2023/06/01 07:45:13;;;;;;;;;;;;;;;14.68;65.67;102312.22;4947442;28;19922;-60
2023/06/01 07:47:38;;;;;;;;;;;;;;;14.72;65.38;102302.88;4941138;28;19941;-60
2023/06/01 07:50:04;;;;;;;;;;;;;;;14.75;65.50;102312.44;4940838;28;20466;-60
2023/06/01 07:52:29;;;;;;;;;;;;;;;14.77;65.27;102315.78;4937211;28;20451;-60
2023/06/01 07:54:55;;;;;;;;;;;;;;;14.77;64.92;102308.59;4938765;28;20061;-61
2023/06/01 07:57:20;;;;;;;;;;;;;;;14.77;64.74;102310.44;4951330;28;19925;-61
2023/06/01 07:59:45;;;;;;;;;;;;;;;14.75;64.66;102310.59;4948371;28;19922;-60
2023/06/01 08:02:11;;;;;;;;;;;;;;;14.79;64.90;102311.09;4952069;28;19918;-61
2023/06/01 08:04:37;;;;;;;;;;;;;;;14.84;65.06;102308.78;4951697;28;19918;-61
2023/06/01 08:07:03;;;;;;;;;;;;;;;14.91;64.72;102301.75;4950147;28;19923;-61
2023/06/01 08:09:28;;;;;;;;;;;;;;;14.98;64.59;102308.13;4939914;28;19918;-60
2023/06/01 08:11:53;;;;;;;;;;;;;;;15.01;64.26;102299.78;4939790;29;19923;-60
2023/06/01 08:14:19;;;;;;;;;;;;;;;15.05;64.31;102301.13;4943454;28;19918;-72
2023/06/01 08:16:45;;;;;;;;;;;;;;;15.15;64.34;102301.81;4944746;28;20706;-70
2023/06/01 08:19:10;;;;;;;;;;;;;;;15.24;64.37;102307.19;4946317;28;20423;-70
2023/06/01 08:21:35;;;;;;;;;;;;;;;15.25;63.97;102298.97;4952099;28;19961;-69
2023/06/01 08:24:01;;;;;;;;;;;;;;;15.31;64.42;102301.00;4941088;28;19978;-69
2023/06/01 08:26:27;;;;;;;;;;;;;;;15.40;63.98;102294.66;4943619;28;19953;-69
2023/06/01 08:28:52;;;;;;;;;;;;;;;15.44;64.17;102295.16;4943869;28;19914;-70
2023/06/01 08:31:21;;;;;;;;;;;;;;;15.50;64.12;102302.50;4949974;28;19922;-70
2023/06/01 08:33:47;;;;;;;;;;;;;;;15.59;64.11;102293.50;4942069;28;19931;-70
2023/06/01 08:36:13;;;;;;;;;;;;;;;15.72;63.88;102295.69;4948861;28;19918;-70
2023/06/01 08:38:38;;;;;;;;;;;;;;;15.87;63.13;102299.34;4941626;28;20463;-69
2023/06/01 08:41:08;;;;;;;;;;;;;;;15.98;62.42;102299.00;4944923;28;19922;-70
2023/06/01 08:43:35;;;;;;;;;;;;;;;16.15;61.96;102294.44;4939909;28;19926;-70
2023/06/01 08:46:00;;;;;;;;;;;;;;;16.29;61.37;102300.94;4945548;28;20561;-69
2023/06/01 08:48:27;;;;;;;;;;;;;;;16.43;61.28;102286.78;4941757;28;19922;-70
2023/06/01 08:50:53;;;;;;;;;;;;;;;16.57;60.93;102285.25;4948441;28;19918;-70
2023/06/01 08:53:21;;;;;;;;;;;;;;;16.70;60.40;102290.91;4947953;28;19954;-70
2023/06/01 08:55:46;;;;;;;;;;;;;;;16.85;60.10;102288.31;4948653;28;19919;-70
2023/06/01 08:58:12;;;;;;;;;;;;;;;16.96;60.19;102291.44;4942970;28;19941;-70
2023/06/01 09:00:38;;;;;;;;;;;;;;;17.12;60.62;102282.44;4947515;28;19914;-70
2023/06/01 09:03:03;;;;;;;;;;;;;;;17.27;59.97;102277.13;4948066;28;19926;-70
2023/06/01 09:05:29;;;;;;;;;;;;;;;17.39;59.45;102277.56;4948868;28;19919;-69
2023/06/01 09:07:54;;;;;;;;;;;;;;;17.48;58.81;102273.78;4945427;28;19919;-69
2023/06/01 09:10:22;;;;;;;;;;;;;;;17.54;58.26;102273.03;4941854;28;19926;-69
2023/06/01 09:12:51;;;;;;;;;;;;;;;17.64;57.44;102270.97;4945931;28;19926;-69
2023/06/01 09:15:17;;;;;;;;;;;;;;;17.74;57.23;102268.03;4947348;28;19945;-69
2023/06/01 09:17:43;;;;;;;;;;;;;;;17.86;56.83;102278.13;4947083;28;20340;-70
2023/06/01 09:20:13;;;;;;;;;;;;;;;17.99;56.62;102274.84;4947904;28;19929;-70
2023/06/01 09:22:39;;;;;;;;;;;;;;;18.09;56.31;102264.63;4945736;28;20438;-70
2023/06/01 09:25:04;;;;;;;;;;;;;;;18.12;55.91;102272.31;4948385;28;20322;-70
2023/06/01 09:27:41;;;;;;;;;;;;;;;18.29;56.40;102267.59;4949388;28;19927;-71
2023/06/01 09:30:06;;;;;;;;;;;;;;;18.44;55.53;102260.34;4949680;29;20456;-69
2023/06/01 09:32:33;;;;;;;;;;;;;;;18.57;54.93;102254.31;4948408;28;20017;-69
2023/06/01 09:34:58;;;;;;;;;;;;;;;18.70;55.07;102248.25;4945935;28;19988;-70
2023/06/01 09:37:23;;;;;;;;;;;;;;;18.80;54.37;102257.72;4947308;28;19919;-69
2023/06/01 09:39:49;;;;;;;;;;;;;;;18.91;54.12;102250.16;4947825;28;19926;-69
2023/06/01 09:42:14;;;;;;;;;;;;;;;19.04;53.75;102252.97;4950598;28;20584;-69
2023/06/01 09:44:40;;;;;;;;;;;;;;;19.17;53.43;102261.19;4940526;28;19918;-70
2023/06/01 09:47:06;;;;;;;;;;;;;;;19.28;54.06;102243.66;4950018;28;19950;-69
2023/06/01 09:49:31;;;;;;;;;;;;;;;19.33;53.86;102244.75;4948316;28;19984;-69
2023/06/01 09:52:05;;;;;;;;;;;;;;;19.35;53.40;102248.06;4942172;28;19937;-68
2023/06/01 09:54:37;;;;;;;;;;;;;;;19.46;53.17;102239.50;4942208;28;19927;-70
2023/06/01 09:57:03;;;;;;;;;;;;;;;19.59;53.15;102238.78;4942461;28;19962;-70
2023/06/01 09:59:29;;;;;;;;;;;;;;;19.62;53.04;102240.25;4947335;28;19965;-69
2023/06/01 10:01:58;;;;;;;;;;;;;;;19.65;52.59;102242.53;4950782;28;19953;-69
2023/06/01 10:04:27;;;;;;;;;;;;;;;19.73;52.59;102245.09;4946264;28;19946;-69
2023/06/01 10:06:53;;;;;;;;;;;;;;;19.82;51.35;102252.00;4947627;28;19922;-69
2023/06/01 10:09:20;;;;;;;;;;;;;;;19.89;51.09;102244.78;4947451;28;19918;-69
2023/06/01 10:11:47;;;;;;;;;;;;;;;19.96;51.42;102248.38;4945677;28;19969;-69
2023/06/01 10:14:12;;;;;;;;;;;;;;;20.03;50.69;102246.56;4942307;28;20572;-70
2023/06/01 10:16:40;;;;;;;;;;;;;;;20.10;50.09;102241.19;4947017;28;19918;-69
2023/06/01 10:19:06;;;;;;;;;;;;;;;20.20;50.37;102235.41;4944949;28;19945;-69
2023/06/01 10:21:32;;;;;;;;;;;;;;;20.28;50.32;102227.19;4943450;28;20649;-70
2023/06/01 10:23:57;;;;;;;;;;;;;;;20.38;49.88;102230.31;4943137;28;20073;-70
2023/06/01 10:26:23;;;;;;;;;;;;;;;20.47;50.17;102231.84;4945929;28;20427;-69
2023/06/01 10:28:49;;;;;;;;;;;;;;;20.62;50.26;102232.53;4939167;28;20500;-70
2023/06/01 10:31:37;;;;;;;;;;;;;;;20.71;50.41;102217.78;4944001;28;20312;-69
2023/06/01 10:34:02;;;;;;;;;;;;;;;20.79;50.57;102224.03;4948040;28;19973;-70
2023/06/01 10:36:46;;;;;;;;;;;;;;;20.83;50.06;102220.75;4938032;29;19922;-70
2023/06/01 10:39:30;;;;;;;;;;;;;;;20.84;49.95;102222.41;4942963;28;19927;-72
2023/06/01 10:41:56;;;;;;;;;;;;;;;20.85;49.69;102228.63;4950061;28;19915;-70
2023/06/01 10:44:40;;;;;;;;;;;;;;;20.88;50.18;102226.34;4945577;28;19973;-70
2023/06/01 10:47:25;;;;;;;;;;;;;;;21.05;50.42;102226.78;4945145;28;20312;-70
2023/06/01 10:49:50;;;;;;;;;;;;;;;21.23;48.97;102226.19;4929282;28;19977;-71
2023/06/01 10:52:35;;;;;;;;;;;;;;;21.32;48.73;102219.56;4941076;28;19934;-71
2023/06/01 10:55:07;;;;;;;;;;;;;;;21.43;48.86;102220.81;4948343;28;19918;-71
2023/06/01 10:57:35;;;;;;;;;;;;;;;21.52;48.70;102219.56;4945615;28;20054;-71
2023/06/01 11:00:17;;;;;;;;;;;;;;;21.63;48.68;102224.31;4941941;28;19965;-71
2023/06/01 11:02:44;;;;;;;;;;;;;;;21.68;48.09;102221.81;4946348;28;19962;-71
2023/06/01 11:05:27;;;;;;;;;;;;;;;21.65;47.99;102216.81;4943672;28;20409;-70
2023/06/01 11:07:53;;;;;;;;;;;;;;;21.71;47.99;102212.47;4946858;28;20009;-71
2023/06/01 11:10:47;;;;;;;;;;;;;;;21.71;48.11;102207.88;4941866;29;20021;-71
2023/06/01 11:13:17;;;;;;;;;;;;;;;21.73;47.65;102216.63;4928561;28;19926;-71
2023/06/01 11:16:02;;;;;;;;;;;;;;;21.82;47.08;102211.81;4946861;28;20341;-71
2023/06/01 11:18:41;;;;;;;;;;;;;;;21.92;47.40;102204.91;4938367;28;19923;-71
2023/06/01 11:21:07;;;;;;;;;;;;;;;21.93;47.07;102203.03;4948099;28;20299;-71
2023/06/01 11:23:33;;;;;;;;;;;;;;;21.97;46.68;102196.16;4943921;28;19918;-71
2023/06/01 11:26:00;;;;;;;;;;;;;;;22.06;47.31;102203.03;4946495;28;19930;-71
2023/06/01 11:28:25;;;;;;;;;;;;;;;22.09;46.74;102189.06;4939721;28;20392;-71
2023/06/01 11:30:51;;;;;;;;;;;;;;;22.15;46.89;102199.03;4944450;28;19921;-71
2023/06/01 11:33:16;;;;;;;;;;;;;;;22.21;46.21;102187.34;4949766;28;19925;-70
2023/06/01 11:35:42;;;;;;;;;;;;;;;22.23;45.92;102195.25;4950231;28;20005;-71
2023/06/01 11:38:07;;;;;;;;;;;;;;;22.28;45.81;102191.94;4948551;28;19962;-71
2023/06/01 11:40:32;;;;;;;;;;;;;;;22.35;45.53;102193.53;4947767;28;19990;-71
2023/06/01 11:42:57;;;;;;;;;;;;;;;22.37;44.90;102186.03;4945813;28;20448;-71
2023/06/01 11:45:23;;;;;;;;;;;;;;;22.36;44.34;102197.09;4951033;28;20017;-71
2023/06/01 11:47:48;;;;;;;;;;;;;;;22.33;44.28;102201.06;4944456;28;19962;-71
2023/06/01 11:50:20;;;;;;;;;;;;;;;22.30;44.67;102193.38;4945989;28;20459;-71
2023/06/01 11:52:45;;;;;;;;;;;;;;;22.32;45.06;102193.16;4946073;28;19919;-71
2023/06/01 11:55:10;;;;;;;;;;;;;;;22.41;44.94;102192.69;4949087;28;19925;-71
2023/06/01 11:57:39;;;;;;;;;;;;;;;22.46;44.78;102192.03;4947819;28;19918;-71
2023/06/01 12:00:12;;;;;;;;;;;;;;;22.45;45.59;102191.19;4943721;28;20657;-71
2023/06/01 12:02:38;;;;;;;;;;;;;;;22.44;45.04;102188.72;4933630;28;19938;-71
2023/06/01 12:05:06;;;;;;;;;;;;;;;22.40;44.84;102185.59;4942283;28;20734;-71
2023/06/01 12:07:32;;;;;;;;;;;;;;;22.40;44.90;102184.78;4947191;28;20010;-71
2023/06/01 12:09:57;;;;;;;;;;;;;;;22.44;44.93;102184.13;4948639;28;20033;-71
2023/06/01 12:12:28;;;;;;;;;;;;;;;22.48;45.03;102177.22;4947748;28;19919;-71
2023/06/01 12:14:53;;;;;;;;;;;;;;;22.44;43.96;102178.72;4951907;29;19919;-71
2023/06/01 12:17:18;;;;;;;;;;;;;;;22.46;44.90;102181.19;4947530;28;19922;-71
2023/06/01 12:19:44;;;;;;;;;;;;;;;22.58;44.79;102181.34;4952381;28;20016;-71
2023/06/01 12:22:10;;;;;;;;;;;;;;;22.66;44.73;102184.63;4944246;28;19925;-71
2023/06/01 12:24:35;;;;;;;;;;;;;;;22.63;43.96;102184.25;4939511;28;19923;-71
2023/06/01 12:27:02;;;;;;;;;;;;;;;22.68;44.16;102177.13;4949799;28;20021;-71
2023/06/01 12:29:34;;;;;;;;;;;;;;;22.82;44.26;102175.16;4944318;28;19946;-71
2023/06/01 12:31:59;;;;;;;;;;;;;;;22.92;44.02;102178.22;4950318;28;19922;-71
2023/06/01 12:34:24;;;;;;;;;;;;;;;22.97;43.74;102180.28;4950055;28;20407;-71